GCG2367 KSTS-KLAX
Flight info
| Callsign | GCG2367 |
|---|---|
| Flight time | 1h 0m |
| Altitude | 35000 |
| Route | RREHD1 HADLY SUSEY EBAYE BURGL IRNMN2 |
| Aircraft | MD1F/H-SDE1E2E3FGHIJ2J3J4J5M1RWXY/LB1D1 |
Departure
| Time | 2026-04-30 21:32 |
|---|---|
| Airport | Charles M. Schulz Sonoma County Airport (KSTS) |
Arrival
| Time | 2026-04-30 22:32 |
|---|---|
| Airport | Los Angeles International Airport (KLAX) |
| Time | Latitude | Longitude | Altitude | Speed | Heading |
|---|---|---|---|---|---|
| 2026-04-30 21:11 | 38.51285 | -122.80709 | 121 ft | 0 kts | 240° |
| 2026-04-30 21:22 | 38.51284 | -122.80711 | 121 ft | 0 kts | 240° |
| 2026-04-30 21:23 | 38.51272 | -122.80738 | 121 ft | 6 kts | 241° |
| 2026-04-30 21:23 | 38.51254 | -122.80820 | 122 ft | 11 kts | 266° |
| 2026-04-30 21:23 | 38.51314 | -122.80962 | 121 ft | 7 kts | 274° |
| 2026-04-30 21:24 | 38.51353 | -122.81008 | 120 ft | 8 kts | 334° |
| 2026-04-30 21:24 | 38.51410 | -122.81040 | 119 ft | 9 kts | 336° |
| 2026-04-30 21:24 | 38.51473 | -122.81074 | 118 ft | 10 kts | 337° |
| 2026-04-30 21:24 | 38.51543 | -122.81111 | 117 ft | 11 kts | 338° |
| 2026-04-30 21:25 | 38.51693 | -122.81193 | 114 ft | 12 kts | 337° |
| 2026-04-30 21:25 | 38.51767 | -122.81242 | 113 ft | 8 kts | 303° |
| 2026-04-30 21:25 | 38.51771 | -122.81255 | 113 ft | 0 kts | 279° |
| 2026-04-30 21:30 | 38.51771 | -122.81257 | 113 ft | 0 kts | 269° |
| 2026-04-30 21:31 | 38.51700 | -122.81342 | 114 ft | 15 kts | 159° |
| 2026-04-30 21:31 | 38.50524 | -122.80725 | 130 ft | 158 kts | 158° |
| 2026-04-30 21:32 | 38.48138 | -122.79456 | 872 ft | 188 kts | 156° |
| 2026-04-30 21:32 | 38.46956 | -122.78805 | 1464 ft | 187 kts | 156° |
| 2026-04-30 21:32 | 38.45757 | -122.78150 | 1929 ft | 188 kts | 156° |
| 2026-04-30 21:32 | 38.44546 | -122.77496 | 2332 ft | 191 kts | 156° |
| 2026-04-30 21:33 | 38.43313 | -122.76834 | 2706 ft | 198 kts | 156° |
| 2026-04-30 21:33 | 38.40419 | -122.75545 | 2982 ft | 243 kts | 179° |
| 2026-04-30 21:33 | 38.38732 | -122.75932 | 3235 ft | 257 kts | 201° |
| 2026-04-30 21:34 | 38.37062 | -122.76903 | 3610 ft | 269 kts | 206° |
| 2026-04-30 21:34 | 38.33583 | -122.78823 | 5059 ft | 278 kts | 198° |
| 2026-04-30 21:34 | 38.31739 | -122.79552 | 5871 ft | 282 kts | 194° |
| 2026-04-30 21:35 | 38.29833 | -122.80170 | 6658 ft | 286 kts | 192° |
| 2026-04-30 21:35 | 38.27884 | -122.80743 | 7402 ft | 290 kts | 192° |
| 2026-04-30 21:35 | 38.25917 | -122.81315 | 8152 ft | 294 kts | 192° |
| 2026-04-30 21:35 | 38.23927 | -122.81908 | 8872 ft | 298 kts | 192° |
| 2026-04-30 21:36 | 38.21900 | -122.82526 | 9535 ft | 302 kts | 193° |
| 2026-04-30 21:36 | 38.19848 | -122.83159 | 10208 ft | 306 kts | 193° |
| 2026-04-30 21:37 | 38.13364 | -122.85145 | 11632 ft | 338 kts | 193° |
| 2026-04-30 21:37 | 38.11092 | -122.85821 | 12495 ft | 336 kts | 193° |
| 2026-04-30 21:37 | 38.08796 | -122.86277 | 13116 ft | 344 kts | 183° |
| 2026-04-30 21:37 | 38.06349 | -122.86137 | 13292 ft | 364 kts | 168° |
| 2026-04-30 21:38 | 38.03850 | -122.85273 | 13461 ft | 383 kts | 159° |
| 2026-04-30 21:38 | 38.01283 | -122.84010 | 13535 ft | 405 kts | 156° |
| 2026-04-30 21:38 | 37.98631 | -122.82662 | 13902 ft | 417 kts | 158° |
| 2026-04-30 21:38 | 37.95886 | -122.81377 | 14474 ft | 426 kts | 160° |
| 2026-04-30 21:39 | 37.93034 | -122.80143 | 15072 ft | 432 kts | 161° |
| 2026-04-30 21:39 | 37.90192 | -122.78955 | 15735 ft | 436 kts | 161° |
| 2026-04-30 21:39 | 37.87278 | -122.77741 | 16271 ft | 444 kts | 161° |
| 2026-04-30 21:39 | 37.84313 | -122.76494 | 16705 ft | 454 kts | 161° |
| 2026-04-30 21:40 | 37.81316 | -122.75217 | 17237 ft | 459 kts | 161° |
| 2026-04-30 21:40 | 37.78285 | -122.73919 | 17825 ft | 464 kts | 161° |
| 2026-04-30 21:40 | 37.75193 | -122.72592 | 18384 ft | 469 kts | 161° |
| 2026-04-30 21:40 | 37.72140 | -122.71281 | 18963 ft | 472 kts | 161° |
| 2026-04-30 21:41 | 37.69014 | -122.69939 | 19517 ft | 476 kts | 161° |
| 2026-04-30 21:41 | 37.65868 | -122.68588 | 20075 ft | 481 kts | 161° |
| 2026-04-30 21:41 | 37.62883 | -122.67307 | 20611 ft | 484 kts | 161° |
| 2026-04-30 21:41 | 37.59708 | -122.65943 | 21151 ft | 488 kts | 161° |
| 2026-04-30 21:42 | 37.56464 | -122.64551 | 21681 ft | 492 kts | 161° |
| 2026-04-30 21:42 | 37.53235 | -122.63165 | 22189 ft | 496 kts | 161° |
| 2026-04-30 21:42 | 37.49946 | -122.61753 | 22699 ft | 500 kts | 161° |
| 2026-04-30 21:42 | 37.46626 | -122.60330 | 23214 ft | 504 kts | 161° |
| 2026-04-30 21:43 | 37.43342 | -122.58924 | 23699 ft | 508 kts | 161° |
| 2026-04-30 21:43 | 37.40087 | -122.57130 | 24222 ft | 511 kts | 148° |
| 2026-04-30 21:43 | 37.37244 | -122.54433 | 24673 ft | 513 kts | 134° |
| 2026-04-30 21:43 | 37.34993 | -122.51019 | 25062 ft | 516 kts | 121° |
| 2026-04-30 21:44 | 37.33060 | -122.47156 | 25452 ft | 521 kts | 119° |
| 2026-04-30 21:44 | 37.31125 | -122.43317 | 25862 ft | 526 kts | 122° |
| 2026-04-30 21:44 | 37.28994 | -122.39575 | 26371 ft | 529 kts | 125° |
| 2026-04-30 21:44 | 37.26726 | -122.35960 | 26973 ft | 530 kts | 127° |
| 2026-04-30 21:45 | 37.24396 | -122.32391 | 27584 ft | 530 kts | 128° |
| 2026-04-30 21:45 | 37.22060 | -122.28824 | 28189 ft | 530 kts | 128° |
| 2026-04-30 21:45 | 37.19768 | -122.25292 | 28807 ft | 530 kts | 128° |
| 2026-04-30 21:45 | 37.17469 | -122.21716 | 29422 ft | 529 kts | 128° |
| 2026-04-30 21:46 | 37.15152 | -122.18082 | 30021 ft | 529 kts | 128° |
| 2026-04-30 21:46 | 37.12854 | -122.14465 | 30551 ft | 530 kts | 128° |
| 2026-04-30 21:46 | 37.10557 | -122.10846 | 31115 ft | 530 kts | 128° |
| 2026-04-30 21:46 | 37.08266 | -122.07233 | 31604 ft | 530 kts | 128° |
| 2026-04-30 21:47 | 37.05956 | -122.03590 | 32104 ft | 530 kts | 128° |
| 2026-04-30 21:47 | 37.03665 | -121.99977 | 32576 ft | 531 kts | 128° |
| 2026-04-30 21:47 | 37.01391 | -121.96390 | 33042 ft | 531 kts | 128° |
| 2026-04-30 21:47 | 36.99114 | -121.92794 | 33449 ft | 532 kts | 128° |
| 2026-04-30 21:48 | 36.96829 | -121.89181 | 33905 ft | 532 kts | 128° |
| 2026-04-30 21:48 | 36.94511 | -121.85519 | 34382 ft | 532 kts | 128° |
| 2026-04-30 21:48 | 36.92238 | -121.81924 | 34916 ft | 530 kts | 128° |
| 2026-04-30 21:48 | 36.89965 | -121.78333 | 35027 ft | 532 kts | 128° |
| 2026-04-30 21:49 | 36.85430 | -121.71149 | 35015 ft | 525 kts | 128° |
| 2026-04-30 21:49 | 36.80841 | -121.64034 | 35015 ft | 523 kts | 128° |
| 2026-04-30 21:50 | 36.76268 | -121.57037 | 35014 ft | 524 kts | 128° |
| 2026-04-30 21:50 | 36.71689 | -121.50015 | 35011 ft | 524 kts | 128° |
| 2026-04-30 21:51 | 36.67107 | -121.42972 | 35003 ft | 523 kts | 128° |
| 2026-04-30 21:51 | 36.62558 | -121.35975 | 35003 ft | 523 kts | 128° |
| 2026-04-30 21:52 | 36.57987 | -121.28937 | 34993 ft | 522 kts | 129° |
| 2026-04-30 21:52 | 36.53423 | -121.21903 | 34994 ft | 522 kts | 128° |
| 2026-04-30 21:53 | 36.48879 | -121.14899 | 35010 ft | 530 kts | 128° |
| 2026-04-30 21:53 | 36.44195 | -121.07707 | 34999 ft | 539 kts | 128° |
| 2026-04-30 21:54 | 36.39391 | -121.00543 | 34990 ft | 538 kts | 131° |
| 2026-04-30 21:54 | 36.34478 | -120.93660 | 34146 ft | 535 kts | 131° |
| 2026-04-30 21:55 | 36.32053 | -120.90258 | 33533 ft | 529 kts | 130° |
| 2026-04-30 21:55 | 36.29611 | -120.86812 | 33008 ft | 525 kts | 130° |
| 2026-04-30 21:55 | 36.24876 | -120.80091 | 33037 ft | 523 kts | 130° |
| 2026-04-30 21:56 | 36.20101 | -120.73324 | 33027 ft | 523 kts | 130° |
| 2026-04-30 21:56 | 36.15323 | -120.66538 | 33012 ft | 521 kts | 130° |
| 2026-04-30 21:57 | 36.10523 | -120.59712 | 33011 ft | 533 kts | 130° |
| 2026-04-30 21:57 | 36.05629 | -120.52755 | 32990 ft | 537 kts | 130° |
| 2026-04-30 21:58 | 36.00751 | -120.45812 | 32984 ft | 535 kts | 129° |
| 2026-04-30 21:58 | 35.95881 | -120.38869 | 32984 ft | 534 kts | 129° |
| 2026-04-30 21:59 | 35.91047 | -120.31970 | 32978 ft | 534 kts | 130° |
| 2026-04-30 22:00 | 35.83201 | -120.22192 | 32978 ft | 545 kts | 143° |
| 2026-04-30 22:00 | 35.73399 | -120.14889 | 32953 ft | 548 kts | 155° |
| 2026-04-30 22:01 | 35.66650 | -120.10621 | 32948 ft | 546 kts | 151° |
| 2026-04-30 22:01 | 35.60157 | -120.05769 | 32956 ft | 546 kts | 148° |
| 2026-04-30 22:02 | 35.53689 | -120.00823 | 32961 ft | 547 kts | 149° |
| 2026-04-30 22:02 | 35.47205 | -119.96029 | 32964 ft | 547 kts | 149° |
| 2026-04-30 22:03 | 35.40700 | -119.91208 | 32966 ft | 547 kts | 149° |
| 2026-04-30 22:03 | 35.34180 | -119.86346 | 32967 ft | 547 kts | 149° |
| 2026-04-30 22:04 | 35.27778 | -119.81468 | 32277 ft | 545 kts | 144° |
| 2026-04-30 22:04 | 35.21852 | -119.75854 | 31108 ft | 533 kts | 141° |
| 2026-04-30 22:05 | 35.18964 | -119.73063 | 31047 ft | 529 kts | 141° |
| 2026-04-30 22:05 | 35.13031 | -119.67542 | 31039 ft | 541 kts | 142° |
| 2026-04-30 22:05 | 35.10027 | -119.64790 | 30451 ft | 540 kts | 142° |
| 2026-04-30 22:06 | 35.07033 | -119.62035 | 29796 ft | 535 kts | 142° |
| 2026-04-30 22:06 | 35.01153 | -119.56580 | 28687 ft | 523 kts | 141° |
| 2026-04-30 22:06 | 34.98262 | -119.53889 | 27837 ft | 525 kts | 141° |
| 2026-04-30 22:07 | 34.95354 | -119.51183 | 26719 ft | 530 kts | 141° |
| 2026-04-30 22:07 | 34.92427 | -119.48454 | 26305 ft | 526 kts | 141° |
| 2026-04-30 22:07 | 34.89545 | -119.45785 | 26153 ft | 527 kts | 141° |
| 2026-04-30 22:07 | 34.86592 | -119.43124 | 26128 ft | 529 kts | 142° |
| 2026-04-30 22:08 | 34.83593 | -119.40463 | 26071 ft | 537 kts | 142° |
| 2026-04-30 22:08 | 34.80551 | -119.37772 | 26070 ft | 541 kts | 142° |
| 2026-04-30 22:08 | 34.77507 | -119.35072 | 26054 ft | 542 kts | 142° |
| 2026-04-30 22:08 | 34.74480 | -119.32379 | 25922 ft | 537 kts | 142° |
| 2026-04-30 22:09 | 34.71470 | -119.29722 | 25067 ft | 536 kts | 143° |
| 2026-04-30 22:09 | 34.68463 | -119.27100 | 24428 ft | 530 kts | 143° |
| 2026-04-30 22:09 | 34.65455 | -119.24486 | 23354 ft | 532 kts | 143° |
| 2026-04-30 22:09 | 34.62494 | -119.21915 | 22679 ft | 527 kts | 143° |
| 2026-04-30 22:10 | 34.59513 | -119.19348 | 22008 ft | 522 kts | 143° |
| 2026-04-30 22:10 | 34.56539 | -119.16797 | 21316 ft | 517 kts | 143° |
| 2026-04-30 22:10 | 34.53640 | -119.14272 | 20674 ft | 511 kts | 142° |
| 2026-04-30 22:10 | 34.50823 | -119.11747 | 20042 ft | 505 kts | 141° |
| 2026-04-30 22:11 | 34.45208 | -119.06750 | 18758 ft | 496 kts | 141° |
| 2026-04-30 22:11 | 34.42446 | -119.04319 | 18128 ft | 492 kts | 142° |
| 2026-04-30 22:11 | 34.39691 | -119.01925 | 17482 ft | 488 kts | 142° |
| 2026-04-30 22:12 | 34.36956 | -118.99569 | 16914 ft | 482 kts | 142° |
| 2026-04-30 22:12 | 34.34214 | -118.97211 | 16334 ft | 475 kts | 142° |
| 2026-04-30 22:12 | 34.31589 | -118.94884 | 15717 ft | 470 kts | 141° |
| 2026-04-30 22:12 | 34.28995 | -118.92490 | 15129 ft | 464 kts | 140° |
| 2026-04-30 22:13 | 34.26465 | -118.90169 | 14547 ft | 457 kts | 141° |
| 2026-04-30 22:13 | 34.23918 | -118.87852 | 14055 ft | 453 kts | 140° |
| 2026-04-30 22:13 | 34.21457 | -118.85572 | 13987 ft | 450 kts | 140° |
| 2026-04-30 22:13 | 34.18980 | -118.83297 | 13410 ft | 449 kts | 141° |
| 2026-04-30 22:14 | 34.16491 | -118.80999 | 12798 ft | 443 kts | 139° |
| 2026-04-30 22:14 | 34.14196 | -118.78616 | 12194 ft | 437 kts | 135° |
| 2026-04-30 22:14 | 34.11986 | -118.76152 | 11614 ft | 433 kts | 135° |
| 2026-04-30 22:14 | 34.09775 | -118.73690 | 10990 ft | 428 kts | 135° |
| 2026-04-30 22:15 | 34.07571 | -118.71289 | 10390 ft | 424 kts | 136° |
| 2026-04-30 22:15 | 34.05402 | -118.68945 | 9996 ft | 415 kts | 134° |
| 2026-04-30 22:15 | 34.03572 | -118.66336 | 9891 ft | 395 kts | 120° |
| 2026-04-30 22:15 | 34.02521 | -118.63419 | 9825 ft | 371 kts | 100° |
| 2026-04-30 22:16 | 34.02139 | -118.60443 | 9755 ft | 347 kts | 92° |
| 2026-04-30 22:16 | 34.02007 | -118.57662 | 9697 ft | 323 kts | 90° |
| 2026-04-30 22:17 | 34.01504 | -118.50192 | 8799 ft | 283 kts | 94° |
| 2026-04-30 22:17 | 34.01256 | -118.47849 | 8207 ft | 280 kts | 94° |
| 2026-04-30 22:17 | 34.00207 | -118.43455 | 7302 ft | 261 kts | 113° |
| 2026-04-30 22:18 | 33.99351 | -118.41602 | 7028 ft | 250 kts | 117° |
| 2026-04-30 22:18 | 33.97535 | -118.38232 | 6940 ft | 233 kts | 121° |
| 2026-04-30 22:19 | 33.95705 | -118.35049 | 6951 ft | 229 kts | 121° |
| 2026-04-30 22:19 | 33.94793 | -118.33472 | 6952 ft | 229 kts | 122° |
| 2026-04-30 22:19 | 33.92984 | -118.30334 | 6957 ft | 228 kts | 122° |
| 2026-04-30 22:20 | 33.92079 | -118.28758 | 6958 ft | 228 kts | 121° |
| 2026-04-30 22:20 | 33.90269 | -118.25611 | 6959 ft | 228 kts | 121° |
| 2026-04-30 22:20 | 33.89354 | -118.24020 | 6959 ft | 229 kts | 121° |
| 2026-04-30 22:21 | 33.88453 | -118.22456 | 6952 ft | 229 kts | 121° |
| 2026-04-30 22:21 | 33.87534 | -118.20856 | 6951 ft | 229 kts | 121° |
| 2026-04-30 22:21 | 33.86631 | -118.19287 | 6949 ft | 229 kts | 121° |
| 2026-04-30 22:21 | 33.85794 | -118.17654 | 6921 ft | 226 kts | 107° |
| 2026-04-30 22:22 | 33.85457 | -118.15878 | 6515 ft | 219 kts | 91° |
| 2026-04-30 22:22 | 33.85445 | -118.14046 | 5842 ft | 220 kts | 84° |
| 2026-04-30 22:22 | 33.85590 | -118.12219 | 5227 ft | 220 kts | 80° |
| 2026-04-30 22:22 | 33.85801 | -118.10429 | 4972 ft | 216 kts | 79° |
| 2026-04-30 22:23 | 33.86036 | -118.08603 | 5000 ft | 221 kts | 79° |
| 2026-04-30 22:23 | 33.86259 | -118.06779 | 4995 ft | 221 kts | 79° |
| 2026-04-30 22:23 | 33.86471 | -118.04929 | 4984 ft | 221 kts | 80° |
| 2026-04-30 22:23 | 33.86668 | -118.03107 | 4978 ft | 221 kts | 80° |
| 2026-04-30 22:24 | 33.86857 | -118.01284 | 4974 ft | 221 kts | 80° |
| 2026-04-30 22:24 | 33.87040 | -117.99439 | 4968 ft | 221 kts | 81° |
| 2026-04-30 22:24 | 33.87474 | -117.97692 | 4926 ft | 214 kts | 51° |
| 2026-04-30 22:24 | 33.88578 | -117.96699 | 5007 ft | 198 kts | 12° |
| 2026-04-30 22:25 | 33.89923 | -117.96764 | 5098 ft | 195 kts | 335° |
| 2026-04-30 22:25 | 33.90980 | -117.97734 | 5058 ft | 193 kts | 308° |
| 2026-04-30 22:25 | 33.91721 | -117.99123 | 4957 ft | 198 kts | 297° |
| 2026-04-30 22:25 | 33.92286 | -118.00626 | 4878 ft | 197 kts | 292° |
| 2026-04-30 22:26 | 33.93229 | -118.03738 | 4903 ft | 198 kts | 289° |
| 2026-04-30 22:26 | 33.93685 | -118.05321 | 4912 ft | 199 kts | 289° |
| 2026-04-30 22:26 | 33.94141 | -118.06890 | 4925 ft | 199 kts | 290° |
| 2026-04-30 22:27 | 33.94610 | -118.08459 | 4924 ft | 199 kts | 290° |
| 2026-04-30 22:27 | 33.95087 | -118.10025 | 4941 ft | 199 kts | 291° |
| 2026-04-30 22:27 | 33.96062 | -118.13158 | 4944 ft | 199 kts | 291° |
| 2026-04-30 22:28 | 33.96441 | -118.16361 | 4102 ft | 200 kts | 254° |
| 2026-04-30 22:28 | 33.96022 | -118.17934 | 3646 ft | 197 kts | 252° |
| 2026-04-30 22:29 | 33.95240 | -118.22673 | 3444 ft | 188 kts | 265° |
| 2026-04-30 22:29 | 33.95128 | -118.24264 | 2875 ft | 189 kts | 264° |
| 2026-04-30 22:30 | 33.94567 | -118.30280 | 1398 ft | 165 kts | 261° |
| 2026-04-30 22:31 | 33.94146 | -118.34407 | 764 ft | 165 kts | 261° |
| 2026-04-30 22:32 | 33.93715 | -118.38393 | 121 ft | 160 kts | 262° |
| 2026-04-30 22:32 | 33.93582 | -118.39774 | 116 ft | 0 kts | 264° |
| 2026-04-30 22:33 | 33.93583 | -118.39764 | 116 ft | 0 kts | 252° |
| 2026-04-30 22:33 | 33.93483 | -118.40204 | 124 ft | 22 kts | 207° |
| 2026-04-30 22:34 | 33.93464 | -118.39750 | 117 ft | 20 kts | 83° |
| 2026-04-30 22:35 | 33.93499 | -118.39402 | 112 ft | 21 kts | 84° |
| 2026-04-30 22:36 | 33.93417 | -118.39065 | 111 ft | 5 kts | 180° |
| 2026-04-30 22:36 | 33.93404 | -118.39065 | 111 ft | 0 kts | 180° |